createdAt,value
2017-06-10T00:01:22.615Z,53.50
2017-06-10T00:03:50.678Z,53.50
2017-06-10T00:06:18.742Z,53.50
2017-06-10T00:08:46.819Z,53.50
2017-06-10T00:11:14.890Z,53.40
2017-06-10T00:13:42.959Z,53.40
2017-06-10T00:16:11.035Z,53.40
2017-06-10T00:18:39.107Z,53.40
2017-06-10T00:21:07.178Z,53.40
2017-06-10T00:23:35.350Z,53.40
2017-06-10T00:26:03.415Z,53.40
2017-06-10T00:28:31.490Z,53.30
2017-06-10T00:30:59.554Z,53.40
2017-06-10T00:33:27.627Z,53.30
2017-06-10T00:35:55.699Z,53.40
2017-06-10T00:38:23.771Z,53.30
2017-06-10T00:40:51.842Z,53.30
2017-06-10T00:43:19.915Z,54.10
2017-06-10T00:45:48.002Z,53.30
2017-06-10T00:48:16.066Z,53.30
2017-06-10T00:50:44.150Z,53.30
2017-06-10T00:53:12.226Z,53.30
2017-06-10T00:55:40.299Z,53.30
2017-06-10T00:58:08.367Z,53.20
2017-06-10T01:00:36.439Z,53.20
2017-06-10T01:03:04.511Z,53.20
2017-06-10T01:05:32.583Z,53.20
2017-06-10T01:08:00.659Z,53.90
2017-06-10T01:10:28.725Z,53.20
2017-06-10T01:12:56.794Z,53.20
2017-06-10T01:15:24.858Z,53.20
2017-06-10T01:17:52.947Z,53.20
2017-06-10T01:20:21.021Z,53.20
2017-06-10T01:22:49.091Z,53.10
2017-06-10T01:25:17.166Z,53.10
2017-06-10T01:27:45.234Z,53.10
2017-06-10T01:30:13.314Z,53.10
2017-06-10T01:32:41.379Z,53.10
2017-06-10T01:35:09.454Z,53.10
2017-06-10T01:37:37.522Z,53.10
2017-06-10T01:40:05.598Z,53.10
2017-06-10T01:42:33.671Z,53.10
2017-06-10T01:45:01.746Z,53.00
2017-06-10T01:47:29.814Z,53.10
2017-06-10T01:49:57.906Z,53.10
2017-06-10T01:52:26.738Z,53.00
2017-06-10T01:54:54.810Z,53.00
2017-06-10T01:57:22.883Z,53.00
2017-06-10T01:59:50.967Z,53.00
2017-06-10T02:02:19.050Z,53.00
2017-06-10T02:04:47.123Z,53.00
2017-06-10T02:07:15.315Z,53.00
2017-06-10T02:09:43.387Z,53.00
2017-06-10T02:12:11.874Z,53.00
2017-06-10T02:14:39.938Z,53.00
2017-06-10T02:17:08.016Z,53.00
2017-06-10T02:19:36.091Z,53.00
2017-06-10T02:22:04.158Z,53.00
2017-06-10T02:24:32.234Z,53.00
2017-06-10T02:27:00.307Z,52.90
2017-06-10T02:29:28.378Z,53.00
2017-06-10T02:31:56.451Z,52.90
2017-06-10T02:34:24.539Z,52.90
2017-06-10T02:36:53.371Z,52.90
2017-06-10T02:39:21.443Z,52.80
2017-06-10T02:41:49.774Z,52.90
2017-06-10T02:44:17.934Z,52.80
2017-06-10T02:46:46.010Z,52.90
2017-06-10T02:49:14.078Z,52.90
2017-06-10T02:51:42.170Z,52.90
2017-06-10T02:54:10.226Z,52.80
2017-06-10T02:56:38.314Z,52.80
2017-06-10T02:59:07.150Z,52.80
2017-06-10T03:01:35.222Z,52.80
2017-06-10T03:04:03.462Z,52.80
2017-06-10T03:06:32.299Z,52.90
2017-06-10T03:09:00.382Z,52.80
2017-06-10T03:11:28.451Z,52.80
2017-06-10T03:13:56.522Z,52.80
2017-06-10T03:16:24.614Z,52.80
2017-06-10T03:18:52.790Z,52.80
2017-06-10T03:21:20.867Z,52.80
2017-06-10T03:23:48.939Z,52.80
2017-06-10T03:26:17.023Z,52.70
2017-06-10T03:28:45.186Z,52.80
2017-06-10T03:31:13.282Z,52.70
2017-06-10T03:33:41.331Z,52.70
2017-06-10T03:36:09.407Z,52.80
2017-06-10T03:38:37.470Z,52.70
2017-06-10T03:41:05.559Z,52.70
2017-06-10T03:43:34.399Z,52.40
2017-06-10T03:46:02.475Z,52.70
2017-06-10T03:48:30.546Z,52.70
2017-06-10T03:50:58.617Z,52.70
2017-06-10T03:53:26.690Z,52.70
2017-06-10T03:55:54.763Z,52.70
2017-06-10T03:58:22.838Z,52.70
2017-06-10T04:00:50.910Z,52.70
2017-06-10T04:03:18.976Z,52.70
2017-06-10T04:05:47.056Z,52.70
2017-06-10T04:08:15.127Z,52.70
2017-06-10T04:10:43.199Z,52.70
2017-06-10T04:13:11.267Z,52.70
2017-06-10T04:15:39.354Z,52.60
2017-06-10T04:18:07.426Z,52.60
2017-06-10T04:20:35.489Z,52.60
2017-06-10T04:23:03.562Z,52.60
2017-06-10T04:25:31.666Z,52.60
2017-06-10T04:27:59.758Z,52.60
2017-06-10T04:30:28.635Z,52.60
2017-06-10T04:32:56.706Z,52.60
2017-06-10T04:35:24.878Z,52.60
2017-06-10T04:37:52.961Z,52.60
2017-06-10T04:40:21.026Z,52.60
2017-06-10T04:42:49.096Z,52.60
2017-06-10T04:45:17.175Z,52.50
2017-06-10T04:47:45.241Z,52.60
2017-06-10T04:50:13.314Z,52.60
2017-06-10T04:52:41.383Z,52.60
2017-06-10T04:55:09.459Z,52.50
2017-06-10T04:57:37.531Z,52.50
2017-06-10T05:00:05.620Z,52.40
2017-06-10T05:02:34.455Z,52.60
2017-06-10T05:05:03.163Z,52.40
2017-06-10T05:07:31.238Z,52.50
2017-06-10T05:09:59.307Z,52.50
2017-06-10T05:12:27.383Z,52.50
2017-06-10T05:14:55.455Z,52.50
2017-06-10T05:17:23.532Z,52.50
2017-06-10T05:19:51.599Z,52.50
2017-06-10T05:22:19.687Z,52.50
2017-06-10T05:24:47.759Z,52.60
2017-06-10T05:27:15.830Z,52.50
2017-06-10T05:29:43.911Z,52.40
2017-06-10T05:32:11.981Z,52.40
2017-06-10T05:34:40.050Z,52.30
2017-06-10T05:37:08.118Z,52.40
2017-06-10T05:39:36.195Z,52.30
2017-06-10T05:42:04.267Z,52.30
2017-06-10T05:44:32.354Z,52.30
2017-06-10T05:47:01.190Z,52.30
2017-06-10T05:49:29.262Z,52.30
2017-06-10T05:51:57.335Z,52.30
2017-06-10T05:54:25.410Z,53.00
2017-06-10T05:56:53.483Z,52.30
2017-06-10T05:59:21.549Z,52.30
2017-06-10T06:01:49.651Z,52.30
2017-06-10T06:04:17.719Z,52.20
2017-06-10T06:06:45.794Z,52.20
2017-06-10T06:09:13.982Z,52.20
2017-06-10T06:11:42.055Z,52.30
2017-06-10T06:14:10.131Z,52.30
2017-06-10T06:16:38.198Z,52.20
2017-06-10T06:19:06.282Z,52.20
2017-06-10T06:21:34.346Z,52.20
2017-06-10T06:24:02.430Z,52.20
2017-06-10T06:26:31.290Z,52.80
2017-06-10T06:28:59.362Z,52.20
2017-06-10T06:31:27.438Z,52.20
2017-06-10T06:33:55.502Z,52.20
2017-06-10T06:36:23.584Z,52.20
2017-06-10T06:38:51.646Z,52.20
2017-06-10T06:41:19.742Z,52.20
2017-06-10T06:43:47.815Z,52.10
2017-06-10T06:46:15.886Z,52.10
2017-06-10T06:48:43.962Z,52.10
2017-06-10T06:51:12.030Z,52.10
2017-06-10T06:53:40.114Z,52.10
2017-06-10T06:56:08.175Z,52.10
2017-06-10T06:58:36.254Z,52.10
2017-06-10T07:01:04.442Z,52.10
2017-06-10T07:03:32.531Z,52.10
2017-06-10T07:06:01.370Z,52.10
2017-06-10T07:08:29.445Z,52.00
2017-06-10T07:10:57.518Z,52.00
2017-06-10T07:13:25.586Z,52.00
2017-06-10T07:15:53.666Z,52.00
2017-06-10T07:18:21.730Z,52.00
2017-06-10T07:20:49.823Z,52.00
2017-06-10T07:23:17.890Z,52.00
2017-06-10T07:25:45.969Z,52.00
2017-06-10T07:28:14.042Z,52.00
2017-06-10T07:30:42.115Z,52.60
2017-06-10T07:33:10.192Z,52.00
2017-06-10T07:35:38.256Z,51.90
2017-06-10T07:38:06.358Z,51.90
2017-06-10T07:40:35.191Z,52.70
2017-06-10T07:43:03.259Z,52.00
2017-06-10T07:45:31.347Z,51.90
2017-06-10T07:47:59.418Z,52.00
2017-06-10T07:50:27.495Z,51.90
2017-06-10T07:52:55.719Z,51.90
2017-06-10T07:55:23.818Z,51.90
2017-06-10T07:57:51.898Z,52.60
2017-06-10T08:00:19.970Z,51.90
2017-06-10T08:02:48.046Z,51.90
2017-06-10T08:05:16.122Z,52.00
2017-06-10T08:07:44.206Z,51.90
2017-06-10T08:10:12.278Z,51.90
2017-06-10T08:12:40.350Z,51.90
2017-06-10T08:15:08.422Z,51.90
2017-06-10T08:17:36.510Z,51.90
2017-06-10T08:20:04.578Z,51.80
2017-06-10T08:22:32.654Z,51.80
2017-06-10T08:25:00.730Z,52.60
2017-06-10T08:27:28.799Z,51.90
2017-06-10T08:29:56.890Z,51.90
2017-06-10T08:32:24.946Z,51.80
2017-06-10T08:34:53.066Z,51.80
2017-06-10T08:37:21.131Z,51.90
2017-06-10T08:39:49.223Z,52.20
2017-06-10T08:42:17.298Z,52.50
2017-06-10T08:44:45.450Z,52.60
2017-06-10T08:47:13.536Z,52.60
2017-06-10T08:49:41.594Z,52.70
2017-06-10T08:52:09.730Z,52.70
2017-06-10T08:54:37.801Z,52.70
2017-06-10T08:57:05.872Z,52.60
2017-06-10T08:59:34.313Z,52.60
2017-06-10T09:02:02.385Z,52.60
2017-06-10T09:04:30.458Z,52.60
2017-06-10T09:06:58.531Z,52.50
2017-06-10T09:09:26.606Z,52.50
2017-06-10T09:11:54.674Z,52.40
2017-06-10T09:14:22.786Z,52.30
2017-06-10T09:16:51.563Z,52.40
2017-06-10T09:19:19.648Z,52.30
2017-06-10T09:21:47.719Z,52.30
2017-06-10T09:24:15.859Z,52.90
2017-06-10T09:26:43.966Z,52.90
2017-06-10T09:29:12.030Z,52.90
2017-06-10T09:31:40.112Z,52.80
2017-06-10T09:34:08.175Z,52.80
2017-06-10T09:36:36.320Z,52.70
2017-06-10T09:39:04.387Z,52.60
2017-06-10T09:41:32.503Z,52.60
2017-06-10T09:44:00.574Z,52.60
2017-06-10T09:46:28.662Z,53.30
2017-06-10T09:48:56.810Z,52.60
2017-06-10T09:51:24.894Z,52.60
2017-06-10T09:53:52.970Z,52.50
2017-06-10T09:56:21.038Z,52.50
2017-06-10T09:58:49.214Z,52.50
2017-06-10T10:01:17.391Z,53.20
2017-06-10T10:03:45.462Z,52.50
2017-06-10T10:06:13.534Z,52.40
2017-06-10T10:08:41.606Z,52.40
2017-06-10T10:11:09.691Z,52.40
2017-06-10T10:13:37.754Z,52.50
2017-06-10T10:16:05.838Z,52.40
2017-06-10T10:18:33.920Z,52.40
2017-06-10T10:21:02.747Z,52.40
2017-06-10T10:23:30.812Z,52.30
2017-06-10T10:25:58.888Z,52.30
2017-06-10T10:28:26.937Z,52.30
2017-06-10T10:30:55.075Z,52.30
2017-06-10T10:33:23.135Z,52.20
2017-06-10T10:35:51.207Z,52.30
2017-06-10T10:38:19.275Z,52.30
2017-06-10T10:40:47.350Z,52.20
2017-06-10T10:43:15.418Z,52.20
2017-06-10T10:45:43.511Z,52.20
2017-06-10T10:48:11.583Z,52.20
2017-06-10T10:50:39.658Z,52.20
2017-06-10T10:53:07.743Z,52.20
2017-06-10T10:55:35.904Z,52.20
2017-06-10T10:58:03.987Z,52.10
2017-06-10T11:00:32.152Z,52.30
2017-06-10T11:03:00.231Z,52.30
2017-06-10T11:05:28.295Z,52.20
2017-06-10T11:07:56.371Z,52.30
2017-06-10T11:10:24.451Z,52.20
2017-06-10T11:12:52.535Z,52.20
2017-06-10T11:15:20.790Z,52.20
2017-06-10T11:17:48.858Z,52.20
2017-06-10T11:20:16.965Z,52.20
2017-06-10T11:22:45.799Z,52.20
2017-06-10T11:25:13.874Z,52.20
2017-06-10T11:27:41.943Z,52.20
2017-06-10T11:30:10.035Z,52.20
2017-06-10T11:32:38.103Z,52.10
2017-06-10T11:35:06.174Z,52.10
2017-06-10T11:37:34.242Z,52.10
2017-06-10T11:40:02.330Z,52.00
2017-06-10T11:42:30.403Z,52.00
2017-06-10T11:44:58.614Z,51.90
2017-06-10T11:47:26.699Z,52.00
2017-06-10T11:49:54.763Z,51.90
2017-06-10T11:52:22.834Z,52.00
2017-06-10T11:54:50.979Z,52.00
2017-06-10T11:57:19.055Z,51.90
2017-06-10T11:59:47.127Z,51.80
2017-06-10T12:02:15.198Z,51.80
2017-06-10T12:04:43.265Z,51.90
2017-06-10T12:07:11.389Z,51.90
2017-06-10T12:09:39.462Z,51.80
2017-06-10T12:12:07.682Z,51.80
2017-06-10T12:14:35.758Z,51.60
2017-06-10T12:17:03.873Z,51.60
2017-06-10T12:19:32.884Z,51.70
2017-06-10T12:22:00.950Z,51.60
2017-06-10T12:24:29.028Z,51.60
2017-06-10T12:26:57.122Z,51.60
2017-06-10T12:29:25.459Z,51.60
2017-06-10T12:31:53.534Z,51.70
2017-06-10T12:34:21.606Z,51.70
2017-06-10T12:36:49.703Z,51.70
2017-06-10T12:39:17.818Z,51.70
2017-06-10T12:41:46.663Z,52.30
2017-06-10T12:44:14.731Z,51.70
2017-06-10T12:46:42.825Z,51.70
2017-06-10T12:49:10.911Z,51.70
2017-06-10T12:51:38.991Z,60.80
2017-06-10T12:55:11.075Z,37.40
2017-06-10T12:57:39.155Z,38.50
2017-06-10T13:00:07.996Z,37.80
2017-06-10T13:02:36.778Z,37.70
2017-06-10T13:05:04.867Z,38.00
2017-06-10T13:07:32.955Z,39.00
2017-06-10T13:10:01.040Z,39.40
2017-06-10T13:12:29.111Z,38.30
2017-06-10T13:14:57.204Z,38.40
2017-06-10T13:17:26.055Z,38.70
2017-06-10T13:19:54.157Z,38.50
2017-06-10T13:22:23.063Z,38.80
2017-06-10T13:24:51.936Z,39.00
2017-06-10T13:27:20.778Z,37.00
2017-06-10T13:29:48.855Z,36.90
2017-06-10T13:32:16.936Z,38.80
2017-06-10T13:34:45.015Z,37.30
2017-06-10T13:37:13.100Z,37.40
2017-06-10T13:39:41.172Z,36.70
2017-06-10T13:42:09.251Z,37.00
2017-06-10T13:44:37.323Z,36.50
2017-06-10T13:47:05.419Z,37.80
2017-06-10T13:49:34.262Z,37.80
2017-06-10T13:52:02.350Z,37.80
2017-06-10T13:54:30.419Z,38.40
2017-06-10T13:56:58.491Z,36.40
2017-06-10T13:59:26.607Z,37.90
2017-06-10T14:01:55.455Z,35.10
2017-06-10T14:04:23.551Z,34.80
2017-06-10T14:06:51.625Z,34.10
2017-06-10T14:09:19.791Z,36.60
2017-06-10T14:11:47.858Z,33.40
2017-06-10T14:14:15.931Z,33.80
2017-06-10T14:16:44.103Z,34.50
2017-06-10T14:19:12.255Z,35.60
2017-06-10T14:21:40.327Z,35.00
2017-06-10T14:24:08.399Z,34.70
2017-06-10T14:26:36.482Z,34.70
2017-06-10T14:29:04.569Z,34.40
2017-06-10T14:31:32.647Z,34.50
2017-06-10T14:34:00.719Z,34.10
2017-06-10T14:36:28.792Z,35.20
2017-06-10T14:38:56.870Z,34.80
2017-06-10T14:41:24.938Z,35.10
2017-06-10T14:43:53.017Z,35.20
2017-06-10T14:46:21.088Z,35.80
2017-06-10T14:48:49.170Z,35.00
2017-06-10T14:51:18.007Z,34.40
2017-06-10T14:53:46.482Z,33.80
2017-06-10T14:56:14.564Z,33.80
2017-06-10T14:58:42.635Z,33.80
2017-06-10T15:01:10.727Z,33.80
2017-06-10T15:03:38.798Z,33.90
2017-06-10T15:06:06.888Z,35.00
2017-06-10T15:08:34.970Z,34.60
2017-06-10T15:11:03.089Z,34.60
2017-06-10T15:13:31.162Z,35.80
2017-06-10T15:15:59.239Z,35.20
2017-06-10T15:18:27.315Z,35.10
2017-06-10T15:20:55.395Z,35.50
2017-06-10T15:23:23.479Z,36.90
2017-06-10T15:25:51.551Z,34.40
2017-06-10T15:28:19.644Z,35.20
2017-06-10T15:30:47.723Z,35.10
2017-06-10T15:33:15.798Z,34.00
2017-06-10T15:35:44.648Z,33.30
2017-06-10T15:38:12.723Z,33.30
2017-06-10T15:40:40.804Z,33.20
2017-06-10T15:43:08.879Z,32.50
2017-06-10T15:45:36.963Z,33.00
2017-06-10T15:48:05.046Z,33.20
2017-06-10T15:50:33.122Z,32.40
2017-06-10T15:53:01.959Z,34.20
2017-06-10T15:55:30.043Z,34.20
2017-06-10T15:57:58.111Z,33.10
2017-06-10T16:00:26.202Z,32.70
2017-06-10T16:02:54.291Z,32.90
2017-06-10T16:05:22.363Z,34.00
2017-06-10T16:07:50.456Z,34.00
2017-06-10T16:10:19.308Z,34.10
2017-06-10T16:12:47.397Z,33.90
2017-06-10T16:15:15.540Z,34.00
2017-06-10T16:17:43.625Z,34.00
2017-06-10T16:20:11.712Z,34.00
2017-06-10T16:22:39.799Z,34.10
2017-06-10T16:25:07.984Z,34.20
2017-06-10T16:27:36.845Z,34.90
2017-06-10T16:30:04.959Z,34.80
2017-06-10T16:32:33.812Z,33.70
2017-06-10T16:35:01.903Z,33.60
2017-06-10T16:37:29.987Z,33.70
2017-06-10T16:39:58.923Z,34.00
2017-06-10T16:42:27.019Z,34.00
2017-06-10T16:44:55.125Z,34.20
2017-06-10T16:47:24.001Z,34.20
2017-06-10T16:49:52.091Z,34.00
2017-06-10T16:52:20.187Z,33.30
2017-06-10T16:54:48.286Z,34.10
2017-06-10T16:57:16.376Z,34.00
2017-06-10T16:59:44.631Z,34.10
2017-06-10T17:02:12.856Z,35.00
2017-06-10T17:04:41.722Z,34.90
2017-06-10T17:07:09.819Z,34.60
2017-06-10T17:09:38.679Z,34.50
2017-06-10T17:12:06.751Z,34.40
2017-06-10T17:14:34.846Z,35.20
2017-06-10T17:17:02.927Z,34.80
2017-06-10T17:19:31.048Z,34.50
2017-06-10T17:21:59.136Z,35.10
2017-06-10T17:24:27.244Z,34.90
2017-06-10T17:26:55.327Z,36.00
2017-06-10T17:29:24.321Z,35.60
2017-06-10T17:31:52.407Z,35.60
2017-06-10T17:34:20.512Z,36.00
2017-06-10T17:36:48.619Z,35.10
2017-06-10T17:39:16.708Z,36.20
2017-06-10T17:41:44.795Z,34.90
2017-06-10T17:44:12.911Z,36.30
2017-06-10T17:46:40.997Z,35.30
2017-06-10T17:49:09.091Z,36.00
2017-06-10T17:51:37.348Z,35.40
2017-06-10T17:54:05.479Z,35.90
2017-06-10T17:56:33.579Z,35.90
2017-06-10T17:59:01.670Z,36.20
2017-06-10T18:01:29.781Z,36.50
2017-06-10T18:03:58.643Z,37.00
2017-06-10T18:06:26.726Z,36.90
2017-06-10T18:08:54.820Z,37.50
2017-06-10T18:11:22.900Z,37.30
2017-06-10T18:13:50.995Z,37.70
2017-06-10T18:16:19.075Z,37.40
2017-06-10T18:18:47.162Z,37.30
2017-06-10T18:21:15.247Z,37.70
2017-06-10T18:23:49.307Z,38.20
2017-06-10T18:26:17.586Z,37.40
2017-06-10T18:28:45.808Z,37.80
2017-06-10T18:31:13.904Z,38.10
2017-06-10T18:33:42.755Z,38.40
2017-06-10T18:36:10.868Z,38.10
2017-06-10T18:38:39.943Z,38.10
2017-06-10T18:41:08.039Z,38.10
2017-06-10T18:43:36.883Z,38.30
2017-06-10T18:46:04.996Z,38.00
2017-06-10T18:48:33.075Z,38.00
2017-06-10T18:51:01.160Z,38.40
2017-06-10T18:53:30.003Z,39.50
2017-06-10T18:55:58.091Z,39.30
2017-06-10T18:58:26.180Z,39.20
2017-06-10T19:00:54.264Z,38.80
2017-06-10T19:03:23.127Z,39.10
2017-06-10T19:05:51.203Z,39.00
2017-06-10T19:08:19.291Z,39.90
2017-06-10T19:10:48.126Z,40.40
2017-06-10T19:13:16.227Z,40.30
2017-06-10T19:15:44.337Z,40.80
2017-06-10T19:18:12.412Z,41.20
2017-06-10T19:20:40.510Z,41.20
2017-06-10T19:23:08.599Z,41.10
2017-06-10T19:25:36.688Z,41.70
2017-06-10T19:28:04.763Z,42.30
2017-06-10T19:30:32.847Z,42.50
2017-06-10T19:33:00.928Z,42.00
2017-06-10T19:35:29.004Z,42.40
2017-06-10T19:37:57.080Z,42.40
2017-06-10T19:40:25.943Z,42.80
2017-06-10T19:42:54.024Z,42.70
2017-06-10T19:45:22.118Z,43.20
2017-06-10T19:47:50.207Z,43.70
2017-06-10T19:50:18.299Z,44.40
2017-06-10T19:52:46.384Z,45.10
2017-06-10T19:55:14.480Z,45.20
2017-06-10T19:57:42.562Z,45.70
2017-06-10T20:00:10.649Z,47.00
2017-06-10T20:02:38.739Z,46.50
2017-06-10T20:05:07.588Z,46.10
2017-06-10T20:07:35.719Z,46.00
2017-06-10T20:10:03.792Z,45.90
2017-06-10T20:12:31.889Z,46.00
2017-06-10T20:14:59.985Z,46.40
2017-06-10T20:17:28.075Z,46.30
2017-06-10T20:19:56.944Z,48.10
2017-06-10T20:22:25.045Z,47.30
2017-06-10T20:24:53.124Z,48.50
2017-06-10T20:27:21.203Z,49.30
2017-06-10T20:29:49.393Z,49.10
2017-06-10T20:32:17.463Z,49.40
2017-06-10T20:34:45.556Z,50.10
2017-06-10T20:37:13.651Z,49.60
2017-06-10T20:39:41.731Z,49.80
2017-06-10T20:42:09.819Z,50.70
2017-06-10T20:44:37.900Z,49.80
2017-06-10T20:47:05.991Z,50.00
2017-06-10T20:49:34.073Z,50.00
2017-06-10T20:52:02.172Z,50.00
2017-06-10T20:54:30.279Z,50.00
2017-06-10T20:56:58.457Z,50.00
2017-06-10T20:59:26.531Z,50.30
2017-06-10T21:01:54.612Z,50.30
2017-06-10T21:04:23.472Z,50.40
2017-06-10T21:06:51.660Z,50.40
2017-06-10T21:09:19.735Z,50.70
2017-06-10T21:11:47.810Z,50.80
2017-06-10T21:14:16.060Z,50.90
2017-06-10T21:16:44.173Z,51.30
2017-06-10T21:19:12.256Z,51.30
2017-06-10T21:21:40.780Z,51.60
2017-06-10T21:24:08.911Z,51.40
2017-06-10T21:26:36.979Z,51.60
2017-06-10T21:29:05.819Z,51.90
2017-06-10T21:31:33.904Z,51.90
2017-06-10T21:34:02.128Z,52.10
2017-06-10T21:36:30.972Z,53.00
2017-06-10T21:38:59.250Z,52.30
2017-06-10T21:41:27.347Z,52.50
2017-06-10T21:43:55.422Z,53.20
2017-06-10T21:46:24.275Z,53.10
2017-06-10T21:48:52.359Z,52.30
2017-06-10T21:51:20.461Z,52.50
2017-06-10T21:53:49.367Z,52.10
2017-06-10T21:56:18.221Z,52.30
2017-06-10T21:58:46.326Z,52.20
2017-06-10T22:01:15.184Z,53.20
2017-06-10T22:03:43.265Z,53.10
2017-06-10T22:06:11.338Z,53.20
2017-06-10T22:08:39.476Z,53.20
2017-06-10T22:11:07.569Z,53.50
2017-06-10T22:13:35.661Z,53.70
2017-06-10T22:16:03.752Z,54.00
2017-06-10T22:18:31.855Z,54.10
2017-06-10T22:20:59.933Z,54.00
2017-06-10T22:23:28.006Z,54.20
2017-06-10T22:25:56.095Z,54.20
2017-06-10T22:28:24.185Z,54.20
2017-06-10T22:30:52.278Z,54.40
2017-06-10T22:33:20.355Z,54.30
2017-06-10T22:35:49.219Z,54.40
2017-06-10T22:38:17.293Z,54.30
2017-06-10T22:40:45.397Z,54.60
2017-06-10T22:43:14.240Z,54.70
2017-06-10T22:45:42.368Z,54.70
2017-06-10T22:48:10.447Z,54.80
2017-06-10T22:50:38.519Z,54.90
2017-06-10T22:53:06.599Z,54.80
2017-06-10T22:55:34.667Z,54.80
2017-06-10T22:58:02.759Z,54.80
2017-06-10T23:00:30.835Z,55.00
2017-06-10T23:02:58.935Z,55.10
2017-06-10T23:05:27.035Z,55.10
2017-06-10T23:07:55.875Z,55.50
2017-06-10T23:10:23.959Z,55.50
2017-06-10T23:12:52.213Z,55.50
2017-06-10T23:15:20.292Z,55.80
2017-06-10T23:17:48.364Z,56.00
2017-06-10T23:20:16.451Z,56.10
2017-06-10T23:22:44.543Z,56.20
2017-06-10T23:25:12.634Z,56.50
2017-06-10T23:27:40.717Z,56.50
2017-06-10T23:30:09.571Z,56.40
2017-06-10T23:32:37.687Z,56.30
2017-06-10T23:35:05.759Z,56.30
2017-06-10T23:37:34.617Z,56.30
2017-06-10T23:40:02.784Z,56.20
2017-06-10T23:42:30.871Z,56.20
2017-06-10T23:44:59.032Z,56.80
2017-06-10T23:47:27.137Z,57.10
2017-06-10T23:49:55.995Z,57.30
2017-06-10T23:52:24.303Z,57.20
2017-06-10T23:54:53.153Z,57.70
2017-06-10T23:57:21.239Z,57.60
2017-06-10T23:59:49.323Z,57.80
